Time;durP1;ratioP1;P1;durP2;ratioP2;P2;SDS_P1;SDS_P2;PMS_P1;PMS_P2;Temp;Humidity;BMP_temperature;BMP_pressure;BME280_temperature;BME280_humidity;BME280_pressure;Samples;Min_cycle;Max_cycle;Signal;HPM_P1;HPM_P2
2021/12/08 00:00:55;;;;;;;2.40;2.17;;;4.80;99.90;;;;;;2614647;54;20422;-74
2021/12/08 00:03:23;;;;;;;5.37;2.07;;;4.80;99.90;;;;;;2613536;54;20403;-75
2021/12/08 00:05:49;;;;;;;3.97;2.27;;;4.80;99.90;;;;;;2615339;47;21051;-74
2021/12/08 00:08:19;;;;;;;4.13;2.30;;;4.90;99.90;;;;;;2614018;47;21277;-75
2021/12/08 00:13:02;;;;;;;2.80;2.37;;;4.90;99.90;;;;;;2615485;54;20967;-74
2021/12/08 00:13:36;;;;;;;3.30;2.10;;;4.90;99.90;;;;;;2614263;39;20804;-75
2021/12/08 00:16:12;;;;;;;3.17;2.20;;;5.00;99.90;;;;;;2614903;54;20418;-75
2021/12/08 00:18:45;;;;;;;2.60;2.40;;;5.10;99.90;;;;;;2614615;39;20892;-74
2021/12/08 00:21:11;;;;;;;1.63;1.40;;;5.20;99.90;;;;;;2613218;54;20423;-75
2021/12/08 00:23:37;;;;;;;2.70;1.93;;;5.20;99.90;;;;;;2613380;47;20429;-75
2021/12/08 00:26:04;;;;;;;2.33;1.67;;;5.30;99.90;;;;;;2614738;39;20853;-74
2021/12/08 00:28:31;;;;;;;1.50;1.40;;;5.40;99.90;;;;;;2614056;47;20289;-75
2021/12/08 00:31:03;;;;;;;2.40;1.43;;;5.40;99.90;;;;;;2614315;47;20407;-74
2021/12/08 00:33:30;;;;;;;4.00;2.93;;;5.50;99.90;;;;;;2614087;47;21026;-75
2021/12/08 00:35:59;;;;;;;2.07;1.43;;;5.50;99.90;;;;;;2615170;54;20404;-75
2021/12/08 00:38:25;;;;;;;3.50;1.90;;;5.60;99.90;;;;;;2613914;54;20455;-74
2021/12/08 00:40:51;;;;;;;3.33;2.03;;;5.70;99.90;;;;;;2613882;47;20436;-74
2021/12/08 00:43:19;;;;;;;5.57;2.50;;;5.80;99.90;;;;;;2611550;31;20836;-74
2021/12/08 00:45:46;;;;;;;1.60;1.50;;;5.80;99.90;;;;;;2614122;47;20423;-74
2021/12/08 00:48:12;;;;;;;3.13;2.10;;;5.90;99.90;;;;;;2613372;47;20387;-73
2021/12/08 00:50:40;;;;;;;2.57;2.37;;;5.80;99.90;;;;;;2614896;47;20535;-73
2021/12/08 00:53:06;;;;;;;3.03;2.03;;;5.80;99.90;;;;;;2613930;47;20168;-74
2021/12/08 00:55:33;;;;;;;5.10;2.00;;;5.80;99.90;;;;;;2614801;54;20943;-75
2021/12/08 00:57:59;;;;;;;3.33;1.90;;;5.90;99.90;;;;;;2612782;31;20985;-75
2021/12/08 01:00:29;;;;;;;1.80;1.70;;;5.80;99.90;;;;;;2613206;54;20404;-76
2021/12/08 01:02:56;;;;;;;4.50;1.70;;;5.70;99.90;;;;;;2613273;46;20404;-74
2021/12/08 01:05:30;;;;;;;2.27;2.00;;;5.70;99.90;;;;;;2614651;54;20401;-74
2021/12/08 01:07:57;;;;;;;2.57;2.37;;;5.70;99.90;;;;;;2613506;54;20447;-75
2021/12/08 01:10:27;;;;;;;2.60;2.03;;;5.70;99.90;;;;;;2615509;31;20909;-74
2021/12/08 01:12:54;;;;;;;2.40;2.20;;;5.60;99.90;;;;;;2614593;54;20416;-74
2021/12/08 01:15:21;;;;;;;3.73;2.20;;;5.60;99.90;;;;;;2613560;54;20419;-74
2021/12/08 01:17:47;;;;;;;4.80;2.40;;;5.50;99.90;;;;;;2613575;54;20411;-76
2021/12/08 01:20:15;;;;;;;5.40;2.60;;;5.50;99.90;;;;;;2615092;39;20897;-74
2021/12/08 01:22:42;;;;;;;3.50;2.73;;;5.50;99.90;;;;;;2614254;54;20935;-75
2021/12/08 01:25:07;;;;;;;2.50;2.30;;;5.50;99.90;;;;;;2614858;54;20415;-74
2021/12/08 01:27:34;;;;;;;2.27;2.07;;;5.50;99.90;;;;;;2614530;47;20953;-74
2021/12/08 01:30:00;;;;;;;4.33;2.10;;;5.40;99.90;;;;;;2612869;54;20446;-74
2021/12/08 01:32:27;;;;;;;3.10;2.07;;;5.30;99.90;;;;;;2614519;54;20885;-75
2021/12/08 01:34:53;;;;;;;7.20;2.90;;;5.30;99.90;;;;;;2613617;51;21045;-76
2021/12/08 01:37:20;;;;;;;4.50;2.97;;;5.30;99.90;;;;;;2615326;47;20411;-76
2021/12/08 01:39:47;;;;;;;3.03;2.83;;;5.30;99.90;;;;;;2614467;39;20886;-76
2021/12/08 01:42:18;;;;;;;2.83;2.63;;;5.20;99.90;;;;;;2614845;54;20928;-74
2021/12/08 01:47:48;;;;;;;5.27;2.83;;;5.20;99.90;;;;;;2614469;54;21014;-74
2021/12/08 01:50:14;;;;;;;3.50;2.73;;;5.20;99.90;;;;;;2613375;49;20419;-74
2021/12/08 01:52:40;;;;;;;3.03;2.67;;;5.20;99.90;;;;;;2613286;54;20154;-74
2021/12/08 01:55:10;;;;;;;3.60;3.00;;;5.40;99.90;;;;;;2613577;39;21020;-75
2021/12/08 01:57:37;;;;;;;3.63;3.33;;;5.40;99.90;;;;;;2611754;54;20183;-73
2021/12/08 02:00:13;;;;;;;4.10;2.77;;;5.40;99.90;;;;;;2612133;54;20403;-74
2021/12/08 02:02:39;;;;;;;5.20;2.63;;;5.60;99.90;;;;;;2612133;54;20419;-79
2021/12/08 02:05:05;;;;;;;3.23;3.03;;;5.60;99.90;;;;;;2612643;54;20415;-80
2021/12/08 02:07:31;;;;;;;3.30;2.40;;;5.60;99.90;;;;;;2612856;47;20789;-79
2021/12/08 02:09:57;;;;;;;3.20;2.50;;;5.80;99.90;;;;;;2612723;54;20412;-80
2021/12/08 02:12:24;;;;;;;3.97;3.53;;;5.80;99.90;;;;;;2613076;54;20442;-79
2021/12/08 02:14:51;;;;;;;3.87;3.10;;;5.80;99.90;;;;;;2612192;54;20185;-80
2021/12/08 02:17:16;;;;;;;2.20;2.10;;;6.00;99.90;;;;;;2611109;54;20467;-77
2021/12/08 02:19:43;;;;;;;2.57;2.37;;;6.00;99.90;;;;;;2611939;54;20403;-79
2021/12/08 02:22:09;;;;;;;2.67;2.47;;;5.90;99.90;;;;;;2612021;39;20807;-79
2021/12/08 02:24:35;;;;;;;4.17;2.73;;;5.90;99.90;;;;;;2613814;54;20431;-80
2021/12/08 02:27:01;;;;;;;4.70;2.43;;;6.00;99.90;;;;;;2614554;52;21007;-79
2021/12/08 02:29:46;;;;;;;2.93;2.73;;;6.00;99.90;;;;;;2613939;54;20162;-78
2021/12/08 02:32:32;;;;;;;3.50;2.50;;;6.10;99.90;;;;;;2615009;39;20574;-77
2021/12/08 02:48:42;;;;;;;1.60;1.50;;;6.40;99.90;;;;;;2613122;47;20572;-78
2021/12/08 02:51:08;;;;;;;2.53;2.03;;;6.40;99.90;;;;;;2615366;39;20822;-80
2021/12/08 02:53:34;;;;;;;2.20;2.00;;;6.40;99.90;;;;;;2614391;54;20154;-79
2021/12/08 02:56:00;;;;;;;5.83;2.23;;;6.60;99.90;;;;;;2613835;54;20155;-79
2021/12/08 02:58:26;;;;;;;1.73;1.60;;;6.60;99.90;;;;;;2613022;54;20415;-79
2021/12/08 03:00:56;;;;;;;2.10;1.90;;;6.60;99.90;;;;;;2614835;54;20420;-79
2021/12/08 03:03:22;;;;;;;2.33;2.10;;;6.60;99.90;;;;;;2613273;54;20399;-80
2021/12/08 03:05:48;;;;;;;5.90;2.30;;;6.70;99.90;;;;;;2616094;54;20415;-80
2021/12/08 03:08:14;;;;;;;3.40;2.10;;;6.80;99.90;;;;;;2615623;51;20455;-80
2021/12/08 03:10:44;;;;;;;1.70;1.40;;;6.60;99.90;;;;;;2615279;54;20407;-80
2021/12/08 03:13:10;;;;;;;1.33;1.23;;;6.60;99.90;;;;;;2615166;47;20167;-80
2021/12/08 03:15:37;;;;;;;1.73;1.63;;;6.70;99.90;;;;;;2614598;49;20999;-80
2021/12/08 03:18:03;;;;;;;2.10;1.40;;;6.60;99.90;;;;;;2615873;54;20399;-79
2021/12/08 03:20:40;;;;;;;1.90;1.63;;;6.60;99.90;;;;;;2616319;39;22064;-78
2021/12/08 03:23:14;;;;;;;1.63;1.53;;;6.60;99.90;;;;;;2616709;46;21138;-79
2021/12/08 03:25:43;;;;;;;1.80;1.70;;;6.70;99.90;;;;;;2616921;47;20403;-80
2021/12/08 03:28:20;;;;;;;1.83;1.73;;;6.80;99.90;;;;;;2614683;54;20418;-80
2021/12/08 03:31:10;;;;;;;1.90;1.70;;;7.00;99.90;;;;;;2615527;54;20447;-80
2021/12/08 03:33:38;;;;;;;2.83;1.93;;;6.90;99.90;;;;;;2616842;54;20940;-79
2021/12/08 03:36:04;;;;;;;2.20;2.00;;;6.90;99.90;;;;;;2617087;47;20530;-80
2021/12/08 03:38:31;;;;;;;1.67;1.57;;;6.80;99.90;;;;;;2616561;54;20404;-78
2021/12/08 03:41:00;;;;;;;1.70;1.60;;;6.90;99.90;;;;;;2617381;54;20430;-77
2021/12/08 03:43:33;;;;;;;3.17;1.77;;;6.90;99.90;;;;;;2613956;46;20934;-80
2021/12/08 03:45:59;;;;;;;2.20;1.93;;;6.90;99.90;;;;;;2616528;39;20858;-81
2021/12/08 03:48:38;;;;;;;1.60;1.50;;;6.90;99.90;;;;;;2613577;54;20479;-79
2021/12/08 03:51:05;;;;;;;2.93;1.90;;;6.80;99.90;;;;;;2614952;54;20423;-80
2021/12/08 03:53:33;;;;;;;2.87;2.00;;;6.90;99.90;;;;;;2614797;47;20423;-80
2021/12/08 03:55:59;;;;;;;2.93;2.67;;;6.80;99.90;;;;;;2614837;54;20416;-80
2021/12/08 03:58:25;;;;;;;2.03;1.93;;;6.90;99.90;;;;;;2613705;54;20466;-80
2021/12/08 04:00:52;;;;;;;2.43;2.23;;;6.90;99.90;;;;;;2614537;54;20242;-79
2021/12/08 04:03:19;;;;;;;3.03;2.10;;;6.80;99.90;;;;;;2615092;54;20407;-80
2021/12/08 04:05:54;;;;;;;2.63;2.40;;;6.80;99.90;;;;;;2614913;54;21039;-79
2021/12/08 04:11:17;;;;;;;4.10;2.30;;;6.90;99.90;;;;;;2611919;54;20440;-79
2021/12/08 04:13:55;;;;;;;3.20;2.30;;;7.00;99.90;;;;;;2613679;47;20431;-79
2021/12/08 04:16:26;;;;;;;4.13;2.47;;;7.10;99.90;;;;;;2614255;39;20552;-80
2021/12/08 04:18:55;;;;;;;3.70;2.23;;;7.00;99.90;;;;;;2613639;54;20444;-77
2021/12/08 04:21:21;;;;;;;7.10;2.10;;;6.90;99.90;;;;;;2613829;47;20535;-77
2021/12/08 04:23:47;;;;;;;2.73;2.47;;;7.00;99.90;;;;;;2612879;54;20412;-79
2021/12/08 04:26:33;;;;;;;2.60;2.40;;;7.00;99.90;;;;;;2615436;39;20805;-79
2021/12/08 04:28:59;;;;;;;3.17;2.00;;;6.90;99.90;;;;;;2613995;39;20812;-79
2021/12/08 04:31:32;;;;;;;2.40;2.20;;;7.10;99.90;;;;;;2615061;54;20400;-79
2021/12/08 04:34:03;;;;;;;6.00;2.53;;;6.90;99.90;;;;;;2613929;54;20991;-80
2021/12/08 04:36:43;;;;;;;3.30;2.33;;;6.90;99.90;;;;;;2614093;54;20404;-80
2021/12/08 04:39:18;;;;;;;2.53;2.23;;;6.80;99.90;;;;;;2614733;54;20400;-80
2021/12/08 04:41:50;;;;;;;3.10;2.90;;;6.80;99.90;;;;;;2612251;54;20444;-79
2021/12/08 04:50:07;;;;;;;6.97;3.43;;;6.70;99.90;;;;;;2614090;54;20423;-80
2021/12/08 05:08:16;;;;;;;4.67;2.23;;;6.70;99.90;;;;;;2614128;54;20451;-79
2021/12/08 05:10:43;;;;;;;4.23;2.93;;;6.70;99.90;;;;;;2611706;54;20435;-79
2021/12/08 05:13:12;;;;;;;3.00;2.03;;;7.00;99.90;;;;;;2613235;39;20816;-80
2021/12/08 05:15:46;;;;;;;2.90;2.70;;;7.10;99.90;;;;;;2615745;54;20440;-79
2021/12/08 05:18:19;;;;;;;3.23;2.93;;;7.10;99.90;;;;;;2614320;54;20416;-80
2021/12/08 05:20:48;;;;;;;6.57;2.40;;;7.00;99.90;;;;;;2614389;39;20948;-79
2021/12/08 05:23:23;;;;;;;2.60;2.13;;;7.10;99.90;;;;;;2612349;54;20427;-81
2021/12/08 05:25:52;;;;;;;4.43;2.40;;;7.00;99.90;;;;;;2615699;54;20483;-80
2021/12/08 05:28:21;;;;;;;14.77;2.97;;;7.00;99.90;;;;;;2611455;54;20414;-80
2021/12/08 05:30:55;;;;;;;5.00;2.90;;;7.20;99.90;;;;;;2614099;39;20849;-80
2021/12/08 05:33:22;;;;;;;2.67;2.23;;;7.20;99.90;;;;;;2613924;54;20925;-80
2021/12/08 05:35:49;;;;;;;2.30;2.20;;;7.20;99.90;;;;;;2614968;54;20431;-80
2021/12/08 05:38:17;;;;;;;8.17;2.50;;;7.20;99.90;;;;;;2614374;54;20514;-80
2021/12/08 05:41:04;;;;;;;2.40;2.23;;;7.30;99.90;;;;;;2613017;47;20428;-79
2021/12/08 05:43:30;;;;;;;2.23;2.00;;;7.30;99.90;;;;;;2614542;54;20419;-80
2021/12/08 05:45:57;;;;;;;4.03;2.60;;;7.40;99.90;;;;;;2613756;47;20420;-81
2021/12/08 05:48:23;;;;;;;4.03;2.93;;;7.50;99.90;;;;;;2612052;54;20434;-81
2021/12/08 05:51:17;;;;;;;4.93;2.50;;;7.30;99.90;;;;;;2614664;46;20441;-80
2021/12/08 05:53:48;;;;;;;6.60;2.90;;;7.20;99.90;;;;;;2614079;54;20422;-79
2021/12/08 05:56:16;;;;;;;4.10;2.70;;;7.20;99.90;;;;;;2614255;47;20414;-79
2021/12/08 05:58:44;;;;;;;4.90;2.17;;;7.10;99.90;;;;;;2612384;47;20424;-80
2021/12/08 06:01:37;;;;;;;3.57;2.90;;;7.10;99.90;;;;;;2612945;39;20941;-79
2021/12/08 06:04:08;;;;;;;3.20;2.90;;;7.30;99.90;;;;;;2612750;47;21427;-81
2021/12/08 06:06:35;;;;;;;4.93;3.13;;;7.10;99.90;;;;;;2613638;47;20416;-80
2021/12/08 06:09:05;;;;;;;4.33;2.20;;;7.20;99.90;;;;;;2613806;54;20435;-80
2021/12/08 06:11:31;;;;;;;3.03;2.73;;;7.10;99.90;;;;;;2614427;47;20427;-79
2021/12/08 06:13:59;;;;;;;5.50;3.00;;;7.00;99.90;;;;;;2614823;47;20403;-79
2021/12/08 06:16:27;;;;;;;4.77;2.70;;;6.90;99.90;;;;;;2610406;39;21065;-79
2021/12/08 06:18:53;;;;;;;3.57;2.90;;;6.90;99.90;;;;;;2611015;54;20444;-80
2021/12/08 06:21:24;;;;;;;3.00;2.70;;;6.80;99.90;;;;;;2612345;54;20404;-79
2021/12/08 06:23:50;;;;;;;12.67;4.07;;;6.80;99.90;;;;;;2612952;47;20426;-80
2021/12/08 06:26:18;;;;;;;5.27;3.47;;;7.00;99.90;;;;;;2612691;54;20495;-82
2021/12/08 06:28:44;;;;;;;2.50;2.30;;;7.00;99.90;;;;;;2612359;54;20420;-80
2021/12/08 06:31:12;;;;;;;3.33;2.77;;;7.10;99.90;;;;;;2613735;48;20464;-81
2021/12/08 06:33:38;;;;;;;3.80;2.80;;;7.10;99.90;;;;;;2613534;47;20428;-80
2021/12/08 06:36:16;;;;;;;2.93;2.67;;;7.10;99.90;;;;;;2612739;54;20542;-78
2021/12/08 06:38:42;;;;;;;4.23;2.63;;;7.10;99.90;;;;;;2608162;54;20400;-80
2021/12/08 06:41:21;;;;;;;7.90;2.77;;;6.90;99.90;;;;;;2610548;47;21004;-82
2021/12/08 06:43:53;;;;;;;5.60;3.67;;;6.90;99.90;;;;;;2613480;47;20433;-80
2021/12/08 06:46:21;;;;;;;3.70;2.40;;;6.70;99.90;;;;;;2614597;54;20987;-80
2021/12/08 06:48:54;;;;;;;4.27;2.40;;;6.70;99.90;;;;;;2614518;54;20491;-80
2021/12/08 06:51:36;;;;;;;2.73;2.43;;;6.80;99.90;;;;;;2614221;54;20723;-80
2021/12/08 06:54:11;;;;;;;7.00;2.20;;;6.90;99.90;;;;;;2614669;39;20839;-81
2021/12/08 06:56:41;;;;;;;3.43;2.90;;;6.90;99.90;;;;;;2615438;54;20947;-80
2021/12/08 06:59:12;;;;;;;5.20;2.87;;;6.80;99.90;;;;;;2614987;54;20467;-83
2021/12/08 07:01:57;;;;;;;7.40;3.30;;;6.70;99.90;;;;;;2613321;39;20810;-81
2021/12/08 07:04:34;;;;;;;4.70;3.30;;;6.80;99.90;;;;;;2613960;54;20464;-80
2021/12/08 07:07:14;;;;;;;3.63;3.27;;;6.80;99.90;;;;;;2610107;47;21075;-79
2021/12/08 07:09:54;;;;;;;3.53;3.07;;;6.90;99.90;;;;;;2609641;54;20412;-80
2021/12/08 07:12:25;;;;;;;5.10;2.70;;;7.10;99.90;;;;;;2608338;47;20431;-80
2021/12/08 07:14:59;;;;;;;3.40;2.70;;;7.10;99.90;;;;;;2612190;39;20902;-77
2021/12/08 07:17:29;;;;;;;2.53;2.33;;;7.00;99.90;;;;;;2612473;54;20526;-80
2021/12/08 07:20:15;;;;;;;6.63;3.00;;;6.80;99.90;;;;;;2609941;54;20454;-79
2021/12/08 07:22:45;;;;;;;3.93;3.20;;;7.10;99.90;;;;;;2609130;54;20982;-78
2021/12/08 07:25:12;;;;;;;7.60;2.63;;;7.50;99.90;;;;;;2610382;54;20415;-79
2021/12/08 07:27:39;;;;;;;9.90;3.43;;;6.90;99.90;;;;;;2610927;54;20913;-79
2021/12/08 07:30:14;;;;;;;4.77;3.00;;;7.00;99.90;;;;;;2611906;54;20431;-79
2021/12/08 07:32:43;;;;;;;5.20;2.93;;;7.10;99.90;;;;;;2610760;46;21023;-79
2021/12/08 07:35:16;;;;;;;7.30;3.10;;;7.20;99.90;;;;;;2611000;54;21051;-80
2021/12/08 07:37:43;;;;;;;3.93;3.33;;;7.00;99.90;;;;;;2610954;54;20376;-77
2021/12/08 07:40:24;;;;;;;4.33;2.70;;;7.00;99.90;;;;;;2609402;54;20460;-80
2021/12/08 07:43:04;;;;;;;4.67;2.90;;;6.90;99.90;;;;;;2628869;36;20485;-80
2021/12/08 07:45:44;;;;;;;6.30;3.40;;;6.90;99.90;;;;;;2608794;39;20742;-79
2021/12/08 07:48:15;;;;;;;8.00;3.70;;;6.80;99.90;;;;;;2611103;54;20439;-78
2021/12/08 07:50:52;;;;;;;6.97;2.53;;;6.80;99.90;;;;;;2609017;54;20399;-79
2021/12/08 07:53:22;;;;;;;4.30;2.50;;;6.80;99.90;;;;;;2610080;51;20458;-80
2021/12/08 07:55:52;;;;;;;9.57;2.77;;;6.90;99.90;;;;;;2610803;46;20416;-79
2021/12/08 07:58:20;;;;;;;7.20;3.03;;;6.90;99.90;;;;;;2608672;54;20411;-80
2021/12/08 08:00:54;;;;;;;8.77;2.87;;;7.10;99.90;;;;;;2609032;46;20423;-79
2021/12/08 08:03:22;;;;;;;4.80;2.70;;;7.10;99.90;;;;;;2608282;54;20396;-79
2021/12/08 08:05:53;;;;;;;5.43;2.57;;;7.00;99.90;;;;;;2608666;54;20423;-79
2021/12/08 08:08:20;;;;;;;4.77;2.27;;;6.90;99.90;;;;;;2609884;54;20452;-79
2021/12/08 08:10:52;;;;;;;7.40;3.00;;;6.80;99.90;;;;;;2611229;54;20454;-80
2021/12/08 08:13:21;;;;;;;3.10;2.63;;;6.90;99.90;;;;;;2609447;54;20501;-81
2021/12/08 08:15:53;;;;;;;4.93;2.60;;;6.80;99.90;;;;;;2612542;54;20403;-81
2021/12/08 08:18:23;;;;;;;4.63;3.17;;;6.90;99.90;;;;;;2610100;47;20460;-78
2021/12/08 08:20:55;;;;;;;3.93;3.07;;;7.20;99.90;;;;;;2611724;54;20992;-78
2021/12/08 08:23:25;;;;;;;7.43;2.97;;;7.20;99.90;;;;;;2612646;54;20511;-79
2021/12/08 08:25:53;;;;;;;6.43;3.07;;;7.30;99.90;;;;;;2612434;54;20983;-80
2021/12/08 08:28:20;;;;;;;2.70;2.50;;;7.40;99.90;;;;;;2611097;54;20415;-80
2021/12/08 08:30:54;;;;;;;6.00;2.40;;;7.40;99.90;;;;;;2614668;39;20836;-77
2021/12/08 08:33:20;;;;;;;5.87;2.40;;;7.10;99.90;;;;;;2613697;54;20412;-80
2021/12/08 08:35:54;;;;;;;9.80;2.87;;;7.10;99.90;;;;;;2612071;54;20404;-77
2021/12/08 08:38:27;;;;;;;5.70;2.90;;;7.10;99.90;;;;;;2611743;54;20417;-79
2021/12/08 08:41:05;;;;;;;4.40;2.43;;;7.40;99.90;;;;;;2611122;54;20408;-79
2021/12/08 08:43:31;;;;;;;8.93;4.20;;;7.50;99.90;;;;;;2609973;54;21055;-81
2021/12/08 08:46:08;;;;;;;4.00;2.27;;;7.40;99.90;;;;;;2611778;54;20947;-79
2021/12/08 08:48:43;;;;;;;4.90;2.80;;;7.50;99.90;;;;;;2611447;54;20411;-78
2021/12/08 08:51:20;;;;;;;5.57;2.70;;;7.50;99.90;;;;;;2613079;54;20435;-79
2021/12/08 08:53:49;;;;;;;6.50;3.23;;;7.90;99.90;;;;;;2611907;54;20407;-82
2021/12/08 08:56:25;;;;;;;5.23;2.83;;;8.20;99.90;;;;;;2612193;47;20415;-78
2021/12/08 08:58:59;;;;;;;6.37;3.13;;;7.90;99.90;;;;;;2611428;54;20499;-81
2021/12/08 09:01:33;;;;;;;9.57;3.20;;;7.90;99.90;;;;;;2611874;47;20956;-79
2021/12/08 09:04:05;;;;;;;6.67;2.70;;;8.20;99.90;;;;;;2610978;54;20411;-81
2021/12/08 09:06:37;;;;;;;9.33;3.23;;;8.50;99.90;;;;;;2611030;54;20472;-79
2021/12/08 09:09:08;;;;;;;3.63;2.53;;;8.90;99.90;;;;;;2610051;47;20463;-82
2021/12/08 09:11:39;;;;;;;4.47;2.73;;;8.90;99.90;;;;;;2610582;47;20445;-80
2021/12/08 09:14:18;;;;;;;7.87;3.20;;;8.90;99.90;;;;;;2609759;54;20415;-79
2021/12/08 09:16:55;;;;;;;5.30;2.70;;;8.50;99.90;;;;;;2611418;47;20411;-78
2021/12/08 09:19:30;;;;;;;5.37;2.40;;;8.80;99.90;;;;;;2610768;54;20416;-81
2021/12/08 09:22:05;;;;;;;6.17;3.97;;;8.80;99.90;;;;;;2612008;54;20411;-79
2021/12/08 09:24:45;;;;;;;3.77;2.87;;;8.60;99.90;;;;;;2611366;54;20430;-78
2021/12/08 09:27:14;;;;;;;4.77;4.07;;;8.30;99.90;;;;;;2611217;47;20474;-77
2021/12/08 09:29:56;;;;;;;9.23;3.43;;;8.40;99.90;;;;;;2610381;39;20802;-80
2021/12/08 09:32:32;;;;;;;7.33;3.80;;;8.90;99.90;;;;;;2614026;54;20412;-78
2021/12/08 09:35:04;;;;;;;7.20;3.23;;;9.10;99.90;;;;;;2613311;54;20396;-80
2021/12/08 09:37:36;;;;;;;4.27;2.70;;;9.00;99.90;;;;;;2612491;39;20791;-79
2021/12/08 09:40:08;;;;;;;5.60;2.80;;;8.90;99.90;;;;;;2611796;54;20983;-81
2021/12/08 09:42:40;;;;;;;5.10;2.70;;;8.70;99.90;;;;;;2610934;54;20437;-79
2021/12/08 09:45:19;;;;;;;6.67;3.10;;;8.60;99.90;;;;;;2610578;46;20442;-79
2021/12/08 09:47:45;;;;;;;5.93;2.87;;;8.30;99.90;;;;;;2611510;47;20425;-79
2021/12/08 09:50:13;;;;;;;3.43;2.63;;;8.50;99.90;;;;;;2608617;54;20490;-79
2021/12/08 09:52:44;;;;;;;8.87;3.40;;;8.70;99.90;;;;;;2608269;54;21063;-80
2021/12/08 09:55:13;;;;;;;5.23;2.67;;;8.50;99.90;;;;;;2611555;39;21147;-80
2021/12/08 09:57:40;;;;;;;2.40;2.10;;;8.50;99.90;;;;;;2608819;54;20399;-80
2021/12/08 10:00:10;;;;;;;7.47;2.50;;;8.70;99.90;;;;;;2607752;54;20478;-78
2021/12/08 10:02:37;;;;;;;4.20;2.67;;;8.70;99.90;;;;;;2609554;46;20487;-77
2021/12/08 10:05:14;;;;;;;6.23;2.30;;;8.70;99.90;;;;;;2608967;54;20471;-80
2021/12/08 10:07:41;;;;;;;6.67;3.37;;;8.60;99.90;;;;;;2608522;54;20451;-79
2021/12/08 10:10:09;;;;;;;4.00;2.37;;;8.70;99.90;;;;;;2605338;54;20409;-79
2021/12/08 10:12:37;;;;;;;4.27;2.37;;;8.80;99.90;;;;;;2609228;47;20411;-80
2021/12/08 10:15:06;;;;;;;6.00;2.40;;;9.00;99.90;;;;;;2605217;54;20471;-81
2021/12/08 10:17:33;;;;;;;16.03;3.60;;;9.10;99.90;;;;;;2609688;54;20988;-76
2021/12/08 10:20:17;;;;;;;4.47;2.60;;;9.00;99.90;;;;;;2608481;54;20927;-79
2021/12/08 10:22:48;;;;;;;8.60;3.43;;;8.80;99.90;;;;;;2607320;54;20449;-78
2021/12/08 10:25:23;;;;;;;4.87;2.60;;;8.10;99.90;;;;;;2607397;47;20428;-81
2021/12/08 10:28:06;;;;;;;4.80;1.83;;;8.20;99.90;;;;;;2608647;47;20526;-80
2021/12/08 10:30:48;;;;;;;4.83;2.77;;;8.20;99.90;;;;;;2609674;47;21000;-81
2021/12/08 10:36:50;;;;;;;2.00;1.80;;;8.70;99.90;;;;;;2611450;47;20481;-80
2021/12/08 10:39:23;;;;;;;5.03;2.07;;;8.50;99.90;;;;;;2611575;47;20482;-80
2021/12/08 10:41:52;;;;;;;3.77;2.37;;;8.00;99.90;;;;;;2611177;47;20419;-81
2021/12/08 10:45:06;;;;;;;;;;;;;;;;;;;;;
2021/12/08 10:47:36;;;;;;;4.17;2.87;;;8.30;99.90;;;;;;2613304;39;20794;-82
2021/12/08 10:56:19;;;;;;;4.57;2.80;;;8.40;99.90;;;;;;2611877;47;20948;-79
2021/12/08 10:58:50;;;;;;;5.30;2.83;;;8.20;99.90;;;;;;2611984;47;20415;-78
2021/12/08 11:01:24;;;;;;;5.43;2.50;;;8.60;99.90;;;;;;2613516;47;20411;-81
2021/12/08 11:04:08;;;;;;;4.27;2.90;;;8.50;99.90;;;;;;2612309;47;20495;-80
2021/12/08 11:06:39;;;;;;;8.13;3.20;;;8.50;99.90;;;;;;2613653;47;20435;-81
2021/12/08 11:09:21;;;;;;;4.37;3.03;;;8.40;99.90;;;;;;2611784;47;20458;-78
2021/12/08 11:11:52;;;;;;;4.10;2.07;;;8.50;99.90;;;;;;2612744;54;20933;-79
2021/12/08 11:14:31;;;;;;;8.13;3.40;;;8.70;99.90;;;;;;2612522;54;20498;-80
2021/12/08 11:16:59;;;;;;;9.00;3.23;;;9.20;99.90;;;;;;2612822;46;20434;-79
2021/12/08 11:19:25;;;;;;;8.10;2.63;;;9.00;99.90;;;;;;2611089;47;20583;-79
2021/12/08 11:21:56;;;;;;;7.90;2.87;;;9.20;99.90;;;;;;2612620;54;20423;-79
2021/12/08 11:24:48;;;;;;;5.90;2.50;;;9.30;99.90;;;;;;2612414;46;20515;-80
2021/12/08 11:27:34;;;;;;;2.77;2.10;;;8.80;99.90;;;;;;2613548;54;20435;-79
2021/12/08 11:30:25;;;;;;;6.93;2.40;;;8.50;99.90;;;;;;2612751;54;20415;-77
2021/12/08 11:33:28;;;;;;;10.47;3.10;;;8.80;99.90;;;;;;2612754;39;20806;-80
2021/12/08 11:36:16;;;;;;;6.53;2.90;;;8.70;99.90;;;;;;2612235;54;22979;-81
2021/12/08 11:38:46;;;;;;;3.10;2.17;;;8.80;99.90;;;;;;2612359;54;20415;-80
2021/12/08 11:41:34;;;;;;;2.60;2.07;;;8.60;99.90;;;;;;2611913;47;20554;-79
2021/12/08 11:44:02;;;;;;;3.80;2.40;;;8.30;99.90;;;;;;2612028;54;20434;-80
2021/12/08 11:46:32;;;;;;;3.70;2.30;;;8.60;99.90;;;;;;2610826;46;20423;-78
2021/12/08 11:49:04;;;;;;;3.57;2.30;;;8.80;99.90;;;;;;2611847;47;20418;-80
2021/12/08 11:51:42;;;;;;;3.10;2.50;;;8.70;99.90;;;;;;2611363;54;20411;-79
2021/12/08 11:54:22;;;;;;;9.90;2.83;;;8.80;99.90;;;;;;2611429;54;20960;-82
2021/12/08 11:56:47;;;;;;;10.83;2.20;;;9.00;99.90;;;;;;2611169;54;20975;-80
2021/12/08 11:59:14;;;;;;;10.83;3.17;;;8.80;99.90;;;;;;2611184;47;20440;-78
2021/12/08 12:01:40;;;;;;;5.30;2.13;;;8.80;99.90;;;;;;2612736;54;20153;-79
2021/12/08 12:04:09;;;;;;;3.40;2.20;;;8.60;99.90;;;;;;2609531;47;20446;-81
2021/12/08 12:06:36;;;;;;;3.30;1.70;;;9.00;99.90;;;;;;2612340;54;21007;-79
2021/12/08 12:09:04;;;;;;;3.43;2.20;;;8.80;99.90;;;;;;2609324;54;20458;-80
2021/12/08 12:11:30;;;;;;;3.93;2.50;;;8.70;99.90;;;;;;2611037;47;20431;-80
2021/12/08 12:13:58;;;;;;;2.80;1.80;;;8.50;99.90;;;;;;2610832;54;20387;-78
2021/12/08 12:16:24;;;;;;;3.53;2.50;;;8.60;99.90;;;;;;2610536;31;20940;-80
2021/12/08 12:18:55;;;;;;;7.33;2.10;;;8.70;99.90;;;;;;2610991;47;20423;-78
2021/12/08 12:21:53;;;;;;;2.07;1.57;;;9.20;99.90;;;;;;2610274;54;20423;-79
2021/12/08 12:24:21;;;;;;;4.97;2.37;;;9.40;99.90;;;;;;2609855;47;20427;-79
2021/12/08 12:27:24;;;;;;;2.10;1.87;;;9.50;99.90;;;;;;2611311;54;20404;-80
2021/12/08 12:30:16;;;;;;;3.77;2.20;;;9.50;99.90;;;;;;2610883;54;20394;-77
2021/12/08 12:32:50;;;;;;;2.87;2.20;;;9.20;99.90;;;;;;2611431;54;20459;-80
2021/12/08 12:35:22;;;;;;;4.70;1.97;;;9.40;99.90;;;;;;2610905;54;21209;-79
2021/12/08 12:37:50;;;;;;;4.73;1.73;;;8.90;99.90;;;;;;2610037;46;20451;-79
2021/12/08 12:40:30;;;;;;;9.63;2.57;;;9.10;99.90;;;;;;2610353;54;20475;-80
2021/12/08 12:42:58;;;;;;;5.07;2.27;;;9.00;99.90;;;;;;2608337;54;20423;-81
2021/12/08 12:45:25;;;;;;;4.63;2.07;;;9.30;99.90;;;;;;2608673;54;20413;-78
2021/12/08 12:48:13;;;;;;;2.13;1.97;;;9.70;99.90;;;;;;2610207;54;21067;-81
2021/12/08 12:50:53;;;;;;;4.07;1.77;;;9.40;99.90;;;;;;2612703;54;20400;-80
2021/12/08 12:53:56;;;;;;;3.93;2.20;;;9.60;99.90;;;;;;2612527;54;20479;-78
2021/12/08 12:56:34;;;;;;;5.70;2.10;;;9.20;99.90;;;;;;2609725;54;20474;-80
2021/12/08 12:59:14;;;;;;;3.13;2.20;;;8.90;99.90;;;;;;2611280;46;20403;-79
2021/12/08 13:01:47;;;;;;;4.40;2.23;;;8.90;99.90;;;;;;2611963;54;20514;-79
2021/12/08 13:04:34;;;;;;;9.67;2.60;;;9.40;99.90;;;;;;2612327;54;20383;-80
2021/12/08 13:07:02;;;;;;;3.87;2.40;;;9.50;99.90;;;;;;2610402;47;20415;-79
2021/12/08 13:09:51;;;;;;;5.20;3.07;;;10.10;97.30;;;;;;2609687;54;20439;-79
2021/12/08 13:12:27;;;;;;;3.80;2.73;;;9.80;96.80;;;;;;2609210;47;20484;-82
2021/12/08 13:15:13;;;;;;;4.83;2.40;;;9.00;99.90;;;;;;2610834;54;20418;-80
2021/12/08 13:17:59;;;;;;;3.00;2.40;;;8.60;99.90;;;;;;2607718;54;20529;-80
2021/12/08 13:20:26;;;;;;;3.53;2.40;;;9.00;99.90;;;;;;2609754;54;20435;-80
2021/12/08 13:23:00;;;;;;;1.87;1.67;;;8.80;99.90;;;;;;2608165;47;20425;-79
2021/12/08 13:25:54;;;;;;;7.70;2.70;;;9.00;99.90;;;;;;2609943;54;20416;-80
2021/12/08 13:28:45;;;;;;;7.07;2.87;;;8.90;99.90;;;;;;2608988;54;20454;-80
2021/12/08 13:31:19;;;;;;;7.03;2.40;;;8.50;99.90;;;;;;2609920;54;20450;-79
2021/12/08 13:33:51;;;;;;;7.33;2.60;;;8.20;99.90;;;;;;2608126;54;20423;-78
2021/12/08 13:36:20;;;;;;;8.00;2.53;;;8.40;99.90;;;;;;2610265;54;20387;-81
2021/12/08 13:39:05;;;;;;;4.83;2.20;;;8.40;99.90;;;;;;2609521;54;20514;-79
2021/12/08 13:41:34;;;;;;;4.93;2.33;;;8.40;99.90;;;;;;2609123;47;20651;-79
2021/12/08 13:44:17;;;;;;;5.57;2.67;;;8.50;99.90;;;;;;2609749;54;20745;-80
2021/12/08 13:46:49;;;;;;;2.67;2.00;;;8.50;99.90;;;;;;2611820;54;20424;-80
2021/12/08 13:49:19;;;;;;;11.20;2.73;;;8.50;99.90;;;;;;2610294;54;20430;-79
2021/12/08 13:52:07;;;;;;;4.50;2.57;;;8.20;99.90;;;;;;2612074;54;20503;-77
2021/12/08 13:54:38;;;;;;;4.60;3.10;;;8.20;99.90;;;;;;2610864;31;20830;-80
2021/12/08 13:57:24;;;;;;;6.60;2.27;;;8.30;99.90;;;;;;2619976;46;20418;-80
2021/12/08 14:00:01;;;;;;;3.93;2.53;;;8.30;99.90;;;;;;2612026;47;20430;-80
2021/12/08 14:02:36;;;;;;;5.50;2.93;;;8.20;99.90;;;;;;2611173;47;20964;-79
2021/12/08 14:05:10;;;;;;;5.20;2.93;;;8.00;99.90;;;;;;2611926;54;20411;-80
2021/12/08 14:07:41;;;;;;;6.60;3.20;;;8.10;99.90;;;;;;2610966;54;20447;-80
2021/12/08 14:10:16;;;;;;;3.07;2.30;;;8.10;99.90;;;;;;2612405;54;20411;-79
2021/12/08 14:12:52;;;;;;;3.40;2.00;;;8.10;99.90;;;;;;2611426;54;20465;-78
2021/12/08 14:15:22;;;;;;;5.00;2.37;;;7.90;99.90;;;;;;2612232;47;20462;-78